Time;durP1;ratioP1;P1;durP2;ratioP2;P2;SDS_P1;SDS_P2;PMS_P1;PMS_P2;Temp;Humidity;BMP_temperature;BMP_pressure;BME280_temperature;BME280_humidity;BME280_pressure;Samples;Min_cycle;Max_cycle;Signal;HPM_P1;HPM_P2
2023/05/01 00:00:55;;;;;;;4.05;1.90;;;;;;;9.06;80.87;101690.38;6275939;28;20518;-79
2023/05/01 00:03:58;;;;;;;2.35;1.60;;;;;;;9.05;80.54;101684.28;6276029;28;20053;-79
2023/05/01 00:06:59;;;;;;;8.07;2.10;;;;;;;9.08;80.78;101673.72;6275615;28;20044;-79
2023/05/01 00:10:01;;;;;;;8.13;1.70;;;;;;;8.99;80.04;101670.50;6275186;28;20049;-79
2023/05/01 00:13:02;;;;;;;3.97;1.98;;;;;;;8.93;80.20;101665.47;6275476;28;20052;-79
2023/05/01 00:16:07;;;;;;;4.05;1.58;;;;;;;8.94;80.86;101662.78;6275476;28;20049;-79
2023/05/01 00:19:11;;;;;;;4.55;1.88;;;;;;;8.88;79.98;101658.59;6275046;28;20040;-79
2023/05/01 00:22:12;;;;;;;4.05;1.80;;;;;;;8.87;79.69;101653.41;6275216;28;20127;-79
2023/05/01 00:25:14;;;;;;;2.72;1.67;;;;;;;8.84;78.96;101654.34;6275189;28;20041;-79
2023/05/01 00:28:17;;;;;;;2.08;1.38;;;;;;;8.83;78.57;101647.41;6275116;28;20463;-80
2023/05/01 00:31:19;;;;;;;5.70;1.83;;;;;;;8.80;78.75;101644.00;6275028;28;20055;-79
2023/05/01 00:34:21;;;;;;;4.25;1.92;;;;;;;8.79;78.16;101647.53;6275306;28;20052;-80
2023/05/01 00:37:23;;;;;;;7.78;2.10;;;;;;;8.83;78.71;101638.69;6275032;28;20045;-79
2023/05/01 00:40:24;;;;;;;7.63;2.28;;;;;;;8.81;78.52;101641.38;6275233;28;20582;-79
2023/05/01 00:43:26;;;;;;;5.88;1.77;;;;;;;8.80;78.64;101642.25;6275061;28;20049;-80
2023/05/01 00:46:28;;;;;;;7.32;1.98;;;;;;;8.80;78.08;101636.16;6275108;28;20041;-79
2023/05/01 00:49:31;;;;;;;1.92;1.50;;;;;;;8.74;78.81;101629.34;6274549;28;20045;-79
2023/05/01 00:52:33;;;;;;;2.33;1.55;;;;;;;8.70;78.41;101630.34;6274938;28;20051;-80
2023/05/01 00:55:35;;;;;;;3.88;1.63;;;;;;;8.67;78.65;101630.44;6275161;28;20353;-79
2023/05/01 00:58:37;;;;;;;4.35;2.00;;;;;;;8.61;78.01;101622.78;6265993;28;20037;-79
2023/05/01 01:01:38;;;;;;;4.25;1.95;;;;;;;8.51;78.07;101627.44;6269386;28;20515;-79
2023/05/01 01:04:43;;;;;;;3.35;1.73;;;;;;;8.47;79.51;101617.09;6274755;28;20049;-79
2023/05/01 01:07:54;;;;;;;3.70;1.85;;;;;;;8.41;79.33;101615.53;6271204;28;20049;-79
2023/05/01 01:11:01;;;;;;;6.18;1.80;;;;;;;8.39;79.45;101620.81;6274638;28;20075;-80
2023/05/01 01:14:08;;;;;;;5.60;1.88;;;;;;;8.39;79.32;101615.56;6269583;28;20052;-79
2023/05/01 01:17:17;;;;;;;2.58;1.90;;;;;;;8.38;79.03;101620.84;6274331;28;20418;-79
2023/05/01 01:20:31;;;;;;;2.63;1.65;;;;;;;8.37;78.93;101627.88;6274075;28;20072;-79
2023/05/01 01:23:51;;;;;;;4.07;1.85;;;;;;;8.20;79.16;101610.91;6274680;28;20132;-79
2023/05/01 01:27:33;;;;;;;3.50;1.70;;;;;;;8.17;80.19;101616.22;6274721;28;20055;-79
2023/05/01 01:31:04;;;;;;;3.80;1.92;;;;;;;8.17;80.37;101608.38;6277373;28;20041;-79
2023/05/01 01:34:14;;;;;;;6.10;2.00;;;;;;;8.19;80.15;101606.56;6279341;28;20056;-79
2023/05/01 01:37:22;;;;;;;7.95;2.00;;;;;;;8.14;79.64;101599.72;6279183;28;20096;-79
2023/05/01 01:40:27;;;;;;;5.07;2.50;;;;;;;8.11;78.79;101591.09;6279042;28;20041;-79
2023/05/01 01:43:33;;;;;;;4.22;2.05;;;;;;;8.10;79.97;101584.13;6279204;28;20441;-79
2023/05/01 01:46:37;;;;;;;2.55;1.70;;;;;;;8.09;80.15;101580.66;6279079;28;20045;-79
2023/05/01 01:49:45;;;;;;;5.93;2.10;;;;;;;8.07;80.44;101577.22;6278773;28;20052;-79
2023/05/01 01:52:49;;;;;;;7.88;2.10;;;;;;;8.03;79.63;101572.97;6278953;28;20072;-79
2023/05/01 01:55:53;;;;;;;3.78;1.75;;;;;;;8.03;79.92;101569.50;6278633;28;20052;-80
2023/05/01 01:58:56;;;;;;;7.25;2.38;;;;;;;8.00;79.82;101567.84;6278392;28;20345;-79
2023/05/01 02:01:58;;;;;;;4.10;2.13;;;;;;;7.98;80.18;101560.94;6278838;28;20053;-79
2023/05/01 02:05:03;;;;;;;6.95;2.17;;;;;;;7.97;79.33;101564.47;6278379;28;20053;-79
2023/05/01 02:08:05;;;;;;;5.28;1.90;;;;;;;7.93;80.02;101552.38;6278289;28;20349;-79
2023/05/01 02:11:08;;;;;;;6.28;2.83;;;;;;;7.84;79.72;101556.09;6278904;28;20041;-79
2023/05/01 02:14:11;;;;;;;2.72;1.60;;;;;;;7.85;79.90;101555.19;6278391;28;20433;-79
2023/05/01 02:17:15;;;;;;;6.90;2.50;;;;;;;7.84;80.46;101551.72;6278293;28;20048;-79
2023/05/01 02:20:20;;;;;;;5.55;2.03;;;;;;;7.80;80.25;101541.38;6278128;28;20434;-80
2023/05/01 02:23:22;;;;;;;2.88;1.75;;;;;;;7.80;80.59;101534.41;6278553;28;20052;-79
2023/05/01 02:26:28;;;;;;;3.50;2.00;;;;;;;7.86;80.96;101530.75;6277911;28;20171;-79
2023/05/01 02:29:30;;;;;;;5.82;2.00;;;;;;;7.81;80.64;101530.91;6264109;28;20045;-79
2023/05/01 02:32:31;;;;;;;3.95;1.73;;;;;;;7.79;81.80;101526.59;6269744;28;20048;-80
2023/05/01 02:35:39;;;;;;;3.28;1.77;;;;;;;7.79;81.70;101516.13;6277900;28;20080;-79
2023/05/01 02:38:41;;;;;;;9.65;2.20;;;;;;;7.74;82.36;101515.41;6277500;28;20037;-79
2023/05/01 02:41:44;;;;;;;5.82;2.15;;;;;;;7.64;82.03;101520.06;6268275;28;20453;-80
2023/05/01 02:44:51;;;;;;;7.15;2.10;;;;;;;7.52;81.58;101521.25;6269615;28;20080;-79
2023/05/01 02:47:58;;;;;;;3.08;1.80;;;;;;;7.59;82.45;101516.72;6277332;28;20059;-80
2023/05/01 02:51:02;;;;;;;4.72;2.38;;;;;;;7.57;81.62;101516.75;6277349;28;20059;-79
2023/05/01 02:54:04;;;;;;;5.47;2.55;;;;;;;7.52;81.36;101513.41;6277632;28;20053;-79
2023/05/01 02:57:05;;;;;;;5.90;2.05;;;;;;;7.53;81.29;101509.88;6276874;28;20048;-79
2023/05/01 03:00:12;;;;;;;5.80;2.45;;;;;;;7.52;82.43;101499.47;6277129;28;20048;-79
2023/05/01 03:03:14;;;;;;;4.00;2.15;;;;;;;7.52;83.36;101504.72;6277323;28;20463;-79
2023/05/01 03:06:18;;;;;;;7.47;2.42;;;;;;;7.50;82.85;101494.31;6277364;28;20040;-79
2023/05/01 03:09:19;;;;;;;6.43;2.13;;;;;;;7.49;82.67;101491.72;6276844;28;20194;-79
2023/05/01 03:12:21;;;;;;;7.93;2.53;;;;;;;7.46;83.10;101494.44;6277171;28;20041;-79
2023/05/01 03:15:22;;;;;;;9.65;3.40;;;;;;;7.36;82.88;101486.84;6276971;28;20048;-79
2023/05/01 03:18:24;;;;;;;6.40;2.72;;;;;;;7.40;82.68;101491.97;6276498;28;20041;-79
2023/05/01 03:21:27;;;;;;;6.60;2.03;;;;;;;7.36;83.68;101479.00;6276893;28;20045;-80
2023/05/01 03:24:28;;;;;;;8.85;2.90;;;;;;;7.38;83.60;101477.19;6276834;28;20052;-79
2023/05/01 03:27:30;;;;;;;4.38;2.50;;;;;;;7.34;83.65;101475.56;6275541;28;20045;-80
2023/05/01 03:30:33;;;;;;;5.22;2.13;;;;;;;7.42;83.99;101470.13;6261361;28;20063;-79
2023/05/01 03:33:34;;;;;;;5.63;2.33;;;;;;;7.37;83.65;101475.47;6261966;28;20051;-80
2023/05/01 03:36:37;;;;;;;4.07;1.95;;;;;;;7.41;83.68;101465.81;6275490;28;20049;-79
2023/05/01 03:39:39;;;;;;;5.03;2.13;;;;;;;7.47;83.86;101460.38;6263267;28;20534;-79
2023/05/01 03:42:40;;;;;;;9.82;2.75;;;;;;;7.42;83.67;101459.66;6261453;28;20073;-79
2023/05/01 03:45:41;;;;;;;4.35;2.30;;;;;;;7.37;83.74;101465.03;6264672;28;20048;-79
2023/05/01 03:48:43;;;;;;;5.53;2.55;;;;;;;7.31;84.10;101452.13;6260856;28;20572;-79
2023/05/01 03:51:46;;;;;;;4.38;2.22;;;;;;;7.30;85.33;101449.53;6262192;28;20465;-79
2023/05/01 03:54:48;;;;;;;4.47;2.70;;;;;;;7.29;84.74;101458.28;6260472;28;20049;-79
2023/05/01 03:57:51;;;;;;;4.47;1.90;;;;;;;7.25;85.05;101444.44;6266208;28;20056;-79
2023/05/01 04:00:55;;;;;;;7.82;2.42;;;;;;;7.28;85.18;101436.53;6271384;28;20055;-79
2023/05/01 04:03:57;;;;;;;9.73;2.60;;;;;;;7.29;85.32;101440.84;6272066;28;20463;-79
2023/05/01 04:07:00;;;;;;;5.38;2.00;;;;;;;7.20;84.92;101429.78;6271413;28;20076;-79
2023/05/01 04:10:03;;;;;;;5.85;2.22;;;;;;;7.17;85.71;101428.13;6266303;28;20357;-79
2023/05/01 04:13:05;;;;;;;6.57;2.60;;;;;;;7.09;85.74;101441.41;6270221;28;20057;-78
2023/05/01 04:16:07;;;;;;;7.78;2.20;;;;;;;7.09;86.44;101440.56;6270094;28;20048;-79
2023/05/01 04:19:09;;;;;;;9.88;3.85;;;;;;;7.06;86.79;101441.50;6268753;28;20064;-79
2023/05/01 04:22:11;;;;;;;9.93;3.42;;;;;;;7.09;86.86;101438.81;6262245;28;20456;-80
2023/05/01 04:25:13;;;;;;;8.38;3.90;;;;;;;7.12;87.13;101437.84;6255216;28;20487;-79
2023/05/01 04:28:14;;;;;;;5.28;2.38;;;;;;;7.08;87.14;101437.06;6265720;28;20071;-79
2023/05/01 04:31:16;;;;;;;8.82;2.80;;;;;;;7.13;87.68;101431.75;6275621;28;20062;-79
2023/05/01 04:34:18;;;;;;;4.18;2.10;;;;;;;7.07;86.45;101431.91;6275352;28;20052;-79
2023/05/01 04:37:21;;;;;;;6.30;2.72;;;;;;;7.04;86.79;101430.25;6274847;28;20044;-79
2023/05/01 04:40:22;;;;;;;9.57;2.63;;;;;;;7.08;88.25;101433.59;6275240;28;20049;-79
2023/05/01 04:43:23;;;;;;;6.70;2.17;;;;;;;7.05;88.31;101431.09;6274800;28;20045;-79
2023/05/01 04:46:25;;;;;;;5.25;2.40;;;;;;;7.11;88.76;101426.53;6275216;28;20049;-79
2023/05/01 04:49:26;;;;;;;4.13;2.40;;;;;;;7.11;88.37;101417.84;6274519;28;20052;-79
2023/05/01 04:52:29;;;;;;;4.28;2.72;;;;;;;7.11;89.61;101416.09;6275033;28;20049;-79
2023/05/01 04:55:30;;;;;;;4.43;2.65;;;;;;;7.16;88.80;101417.72;6274936;28;20052;-79
2023/05/01 04:58:31;;;;;;;6.03;2.75;;;;;;;7.21;88.90;101414.06;6274917;28;20045;-79
2023/05/01 05:01:33;;;;;;;4.55;2.35;;;;;;;7.24;88.79;101410.50;6275024;28;20049;-79
2023/05/01 05:04:35;;;;;;;4.32;2.28;;;;;;;7.24;87.67;101411.38;6273711;28;20068;-79
2023/05/01 05:07:38;;;;;;;8.25;2.38;;;;;;;7.31;88.57;101407.69;6279818;28;20101;-79
2023/05/01 05:10:39;;;;;;;13.80;3.33;;;;;;;7.32;88.26;101412.00;6280126;28;20056;-79
2023/05/01 05:13:41;;;;;;;9.23;2.92;;;;;;;7.38;88.60;101413.56;6279972;28;20099;-79
2023/05/01 05:16:42;;;;;;;6.30;1.98;;;;;;;7.43;88.57;101410.81;6279863;28;20052;-79
2023/05/01 05:19:44;;;;;;;7.28;3.03;;;;;;;7.46;88.74;101410.75;6270948;28;20569;-79
2023/05/01 05:22:47;;;;;;;3.08;1.92;;;;;;;7.47;89.04;101404.59;6278945;28;20056;-78
2023/05/01 05:25:48;;;;;;;4.93;2.65;;;;;;;7.57;88.03;101409.50;6276287;28;20072;-79
2023/05/01 05:28:50;;;;;;;5.75;2.38;;;;;;;7.56;89.41;101405.19;6279094;28;20048;-79
2023/05/01 05:31:51;;;;;;;6.53;2.50;;;;;;;7.62;88.37;101402.38;6279342;28;20048;-78
2023/05/01 05:34:52;;;;;;;4.90;2.00;;;;;;;7.69;87.94;101400.44;6278557;28;20342;-79
2023/05/01 05:37:55;;;;;;;4.32;1.92;;;;;;;7.71;87.12;101401.25;6278508;28;20349;-80
2023/05/01 05:40:58;;;;;;;4.47;2.38;;;;;;;7.74;86.75;101400.31;6278824;28;20072;-79
2023/05/01 05:43:59;;;;;;;5.07;2.00;;;;;;;7.91;86.39;101398.00;6278225;28;20057;-79
2023/05/01 05:47:00;;;;;;;7.30;2.42;;;;;;;7.97;86.20;101391.72;6278896;28;20049;-79
2023/05/01 05:50:02;;;;;;;8.63;2.97;;;;;;;8.00;87.08;101394.25;6278081;28;20056;-79
2023/05/01 05:53:05;;;;;;;5.82;2.05;;;;;;;8.07;87.01;101388.75;6276245;28;20053;-79
2023/05/01 05:56:07;;;;;;;13.43;2.75;;;;;;;8.10;86.40;101386.03;6278091;28;20041;-79
2023/05/01 05:59:08;;;;;;;8.45;2.25;;;;;;;8.17;87.47;101385.81;6278339;28;20047;-79
2023/05/01 06:02:10;;;;;;;3.78;1.83;;;;;;;8.22;86.52;101387.41;6278425;28;20057;-79
2023/05/01 06:05:12;;;;;;;8.43;2.72;;;;;;;8.24;86.92;101382.09;6278104;28;20056;-79
2023/05/01 06:08:15;;;;;;;5.65;2.70;;;;;;;8.27;84.90;101374.16;6275816;28;20175;-79
2023/05/01 06:11:16;;;;;;;9.30;2.53;;;;;;;8.37;86.00;101375.59;6276522;28;20049;-79
2023/05/01 06:14:18;;;;;;;5.32;2.15;;;;;;;8.44;86.70;101369.22;6277794;28;20049;-79
2023/05/01 06:17:20;;;;;;;8.02;2.35;;;;;;;8.50;86.04;101370.78;6277320;28;20052;-79
2023/05/01 06:20:21;;;;;;;3.85;2.13;;;;;;;8.54;86.50;101372.38;6277265;28;20128;-79
2023/05/01 06:23:24;;;;;;;4.15;2.15;;;;;;;8.61;87.74;101379.13;6277817;28;20048;-79
2023/05/01 06:26:26;;;;;;;4.93;2.28;;;;;;;8.62;87.97;101378.19;6277363;28;20466;-79
2023/05/01 06:29:28;;;;;;;3.63;1.67;;;;;;;8.70;87.29;101377.94;6277480;28;20048;-79
2023/05/01 06:32:29;;;;;;;4.10;2.10;;;;;;;8.75;86.98;101371.63;6275419;28;20683;-79
2023/05/01 06:35:31;;;;;;;6.60;2.60;;;;;;;8.82;87.21;101369.66;6277468;28;20044;-79
2023/05/01 06:38:33;;;;;;;5.75;2.10;;;;;;;8.88;86.21;101370.28;6277419;28;20057;-79
2023/05/01 06:41:37;;;;;;;6.65;2.28;;;;;;;8.95;87.05;101372.66;6277437;28;20052;-79
2023/05/01 06:44:38;;;;;;;5.82;2.60;;;;;;;9.00;85.92;101371.59;6277126;28;20047;-79
2023/05/01 06:47:40;;;;;;;7.90;2.28;;;;;;;9.06;80.10;101367.88;6277145;28;20053;-79
2023/05/01 06:50:41;;;;;;;5.32;1.80;;;;;;;9.11;81.63;101366.81;6276909;28;20041;-79
2023/05/01 06:53:44;;;;;;;3.58;1.92;;;;;;;9.18;82.05;101362.19;6277040;28;20049;-79
2023/05/01 06:56:45;;;;;;;2.65;1.60;;;;;;;9.25;82.87;101352.31;6274019;28;20130;-79
2023/05/01 06:59:47;;;;;;;2.67;1.80;;;;;;;9.29;82.44;101356.53;6276732;28;20044;-79
2023/05/01 07:02:48;;;;;;;3.25;1.75;;;;;;;9.35;83.24;101353.66;6276668;28;20052;-79
2023/05/01 07:05:49;;;;;;;2.83;1.48;;;;;;;9.38;83.77;101343.91;6276789;28;20044;-79
2023/05/01 07:08:52;;;;;;;2.88;2.15;;;;;;;9.42;84.54;101344.66;6276827;28;20429;-79
2023/05/01 07:11:55;;;;;;;4.60;2.40;;;;;;;9.45;84.21;101339.31;6277119;28;20456;-79
2023/05/01 07:14:57;;;;;;;4.68;2.05;;;;;;;9.47;79.84;101336.59;6274018;28;20045;-79
2023/05/01 07:18:00;;;;;;;5.35;1.63;;;;;;;9.57;81.10;101341.41;6276496;28;20083;-79
2023/05/01 07:21:01;;;;;;;6.32;1.85;;;;;;;9.69;81.73;101340.09;6276173;28;20094;-79
2023/05/01 07:24:04;;;;;;;7.65;1.45;;;;;;;9.72;81.56;101329.47;6275677;28;20059;-79
2023/05/01 07:27:06;;;;;;;8.90;1.95;;;;;;;9.77;80.71;101326.66;6275518;28;20064;-79
2023/05/01 07:30:09;;;;;;;9.68;2.13;;;;;;;9.82;78.13;101324.72;6276089;28;20037;-79
2023/05/01 07:33:10;;;;;;;3.10;1.50;;;;;;;9.88;77.19;101334.94;6275910;28;20201;-79
2023/05/01 07:36:12;;;;;;;5.40;2.00;;;;;;;9.93;75.58;101327.72;6275951;28;20128;-79
2023/05/01 07:39:16;;;;;;;3.75;1.80;;;;;;;10.08;76.00;101334.09;6275905;28;20056;-79
2023/05/01 07:42:17;;;;;;;4.93;1.35;;;;;;;10.22;75.06;101316.03;6273499;28;20136;-79
2023/05/01 07:45:19;;;;;;;2.60;1.55;;;;;;;10.25;75.80;101326.41;6276223;28;20056;-79
2023/05/01 07:48:20;;;;;;;7.72;2.17;;;;;;;10.35;75.89;101321.63;6275574;28;20048;-79
2023/05/01 07:51:22;;;;;;;4.10;1.98;;;;;;;10.42;74.30;101317.81;6275236;28;20040;-79
2023/05/01 07:54:25;;;;;;;3.88;1.63;;;;;;;10.43;74.98;101306.38;6275739;28;20127;-79
2023/05/01 07:57:26;;;;;;;3.38;1.67;;;;;;;10.52;76.37;101316.47;6275538;28;20056;-79
2023/05/01 08:00:28;;;;;;;7.93;1.95;;;;;;;10.70;74.71;101311.34;6275353;28;20341;-79
2023/05/01 08:03:29;;;;;;;5.30;2.35;;;;;;;10.81;71.52;101298.53;6275473;28;20370;-79
2023/05/01 08:06:31;;;;;;;3.45;1.77;;;;;;;10.95;72.78;101295.31;6275606;28;20049;-79
2023/05/01 08:09:34;;;;;;;8.25;1.88;;;;;;;11.07;73.19;101297.34;6268776;28;20041;-79
2023/05/01 08:12:35;;;;;;;3.75;1.48;;;;;;;11.24;72.14;101299.22;6274571;28;20460;-79
2023/05/01 08:15:38;;;;;;;6.85;2.67;;;;;;;11.25;68.96;101285.97;6275561;28;20049;-79
2023/05/01 08:18:39;;;;;;;4.22;1.58;;;;;;;11.28;71.36;101292.88;6275215;28;20377;-79
2023/05/01 08:21:40;;;;;;;5.15;2.08;;;;;;;11.44;69.00;101296.47;6275151;28;20056;-80
2023/05/01 08:24:43;;;;;;;3.83;2.22;;;;;;;11.41;69.48;101294.00;6272860;28;20044;-79
2023/05/01 08:27:44;;;;;;;3.10;1.88;;;;;;;11.52;69.43;101298.75;6264598;28;20049;-79
2023/05/01 08:30:47;;;;;;;7.22;1.80;;;;;;;11.59;69.48;101293.09;6263246;28;20041;-79
2023/05/01 08:33:49;;;;;;;3.80;2.45;;;;;;;11.62;71.28;101292.09;6272102;28;20049;-79
2023/05/01 08:36:50;;;;;;;8.32;2.60;;;;;;;11.66;69.71;101291.88;6267225;28;20053;-80
2023/05/01 08:39:53;;;;;;;3.78;2.25;;;;;;;11.76;71.07;101294.88;6273234;28;20051;-80
2023/05/01 08:42:55;;;;;;;4.78;1.92;;;;;;;11.80;69.63;101291.19;6275163;28;20048;-80
2023/05/01 08:45:59;;;;;;;3.80;1.65;;;;;;;11.81;71.82;101287.66;6275119;28;20251;-79
2023/05/01 08:49:04;;;;;;;2.58;1.42;;;;;;;11.92;71.17;101285.34;6275116;28;20041;-79
2023/05/01 08:52:07;;;;;;;5.90;2.25;;;;;;;12.09;69.93;101278.38;6275121;28;20052;-80
2023/05/01 08:55:13;;;;;;;4.95;2.00;;;;;;;12.35;68.57;101277.91;6275136;28;20134;-79
2023/05/01 08:58:17;;;;;;;10.18;2.58;;;;;;;12.52;65.82;101271.72;6275078;28;20048;-80
2023/05/01 09:01:20;;;;;;;5.15;2.10;;;;;;;12.63;63.75;101265.88;6275071;28;20048;-80
2023/05/01 09:04:22;;;;;;;6.40;1.58;;;;;;;12.58;65.87;101260.88;6275061;28;20179;-81
2023/05/01 09:07:24;;;;;;;1.98;1.63;;;;;;;12.55;69.01;101255.75;6270090;28;20037;-80
2023/05/01 09:10:27;;;;;;;3.92;1.55;;;;;;;12.63;66.68;101261.47;6270588;28;20171;-78
2023/05/01 09:13:28;;;;;;;6.40;1.60;;;;;;;12.68;67.12;101253.31;6272475;28;20053;-78
2023/05/01 09:16:30;;;;;;;3.20;1.70;;;;;;;12.70;66.95;101254.06;6274933;28;20052;-78
2023/05/01 09:19:31;;;;;;;5.70;1.77;;;;;;;12.80;62.72;101247.34;6274741;28;20154;-79
2023/05/01 09:22:33;;;;;;;5.57;1.83;;;;;;;12.82;64.60;101250.75;6274296;28;20045;-79
2023/05/01 09:25:36;;;;;;;9.88;1.55;;;;;;;12.89;65.37;101243.34;6274642;28;20464;-79
2023/05/01 09:28:43;;;;;;;3.85;1.15;;;;;;;12.98;62.09;101248.13;6274741;28;20040;-79
2023/05/01 09:31:45;;;;;;;5.18;2.00;;;;;;;12.98;62.29;101245.47;6274779;28;20061;-79
2023/05/01 09:34:47;;;;;;;5.05;1.70;;;;;;;13.02;64.46;101235.63;6274455;28;20049;-79
2023/05/01 09:37:49;;;;;;;4.35;1.60;;;;;;;13.17;62.73;101240.03;6274892;28;20057;-79
2023/05/01 09:40:55;;;;;;;7.72;2.15;;;;;;;13.15;65.19;101237.47;6274680;28;20045;-79
2023/05/01 09:43:57;;;;;;;4.93;1.73;;;;;;;13.24;66.99;101237.94;6274380;28;20053;-80
2023/05/01 09:46:58;;;;;;;6.05;1.25;;;;;;;13.32;65.71;101233.94;6272038;28;20067;-79
2023/05/01 09:50:00;;;;;;;3.05;1.60;;;;;;;13.48;62.46;101233.03;6271681;28;20442;-79
2023/05/01 09:53:03;;;;;;;3.90;1.63;;;;;;;13.54;64.13;101232.72;6278851;28;20079;-80
2023/05/01 09:56:06;;;;;;;9.98;2.13;;;;;;;13.68;64.59;101225.66;6278899;28;20134;-81
2023/05/01 09:59:15;;;;;;;6.65;2.47;;;;;;;13.63;63.25;101226.88;6275554;28;20044;-80
2023/05/01 10:02:28;;;;;;;2.70;1.42;;;;;;;13.92;63.53;101220.72;6275118;28;20053;-82
2023/05/01 10:05:42;;;;;;;3.47;1.65;;;;;;;13.89;62.94;101222.69;6279217;28;20084;-83
2023/05/01 10:08:46;;;;;;;3.10;1.60;;;;;;;14.01;59.66;101211.41;6270674;28;20049;-81
2023/05/01 10:11:50;;;;;;;4.97;1.85;;;;;;;13.93;63.59;101206.56;6278795;28;20053;-80
2023/05/01 10:14:53;;;;;;;3.95;1.60;;;;;;;14.05;60.37;101202.34;6278402;28;20044;-80
2023/05/01 10:17:55;;;;;;;1.65;1.27;;;;;;;14.08;63.07;101198.66;6278442;28;20060;-80
2023/05/01 10:20:57;;;;;;;1.95;1.33;;;;;;;14.34;59.88;101197.91;6278332;28;20187;-80
2023/05/01 10:23:58;;;;;;;1.75;1.23;;;;;;;14.53;60.10;101207.38;6278221;28;20143;-81
2023/05/01 10:27:03;;;;;;;4.70;1.40;;;;;;;14.42;60.09;101203.56;6278938;28;20076;-81
2023/05/01 10:30:06;;;;;;;3.05;1.55;;;;;;;14.42;62.30;101194.78;6278248;28;20091;-81
2023/05/01 10:33:07;;;;;;;5.20;1.27;;;;;;;14.61;61.27;101197.16;6278306;28;20464;-81
2023/05/01 10:36:14;;;;;;;2.58;1.30;;;;;;;14.89;61.26;101188.31;6277568;28;20045;-81
2023/05/01 10:39:31;;;;;;;5.72;1.30;;;;;;;15.21;59.01;101191.50;6277948;28;20049;-81
2023/05/01 10:43:15;;;;;;;3.28;1.40;;;;;;;15.48;57.17;101184.38;6277981;28;20163;-82
2023/05/01 10:46:29;;;;;;;3.78;1.50;;;;;;;15.46;56.34;101178.34;6276135;28;20049;-81
2023/05/01 10:50:03;;;;;;;2.20;1.17;;;;;;;15.42;56.91;101168.06;6277715;28;20052;-81
2023/05/01 10:53:17;;;;;;;1.73;1.08;;;;;;;15.51;53.62;101169.25;6277779;28;20056;-81
2023/05/01 10:56:42;;;;;;;2.13;1.30;;;;;;;15.60;50.47;101169.47;6277580;28;20084;-81
2023/05/01 11:00:13;;;;;;;3.17;1.10;;;;;;;15.66;49.87;101169.09;6277017;28;20135;-83
2023/05/01 11:03:37;;;;;;;2.25;1.23;;;;;;;15.80;50.35;101162.84;6273596;28;20045;-83
2023/05/01 11:07:14;;;;;;;2.97;1.30;;;;;;;15.93;50.30;101169.00;6276488;28;20048;-81
2023/05/01 11:10:27;;;;;;;1.70;1.05;;;;;;;15.94;51.29;101170.72;6277362;28;20159;-81
2023/05/01 11:13:57;;;;;;;1.55;0.88;;;;;;;16.02;50.25;101156.06;6275889;28;20048;-82
2023/05/01 11:17:00;;;;;;;3.38;0.52;;;;;;;16.05;47.52;101162.00;6277033;28;20128;-83
2023/05/01 11:20:02;;;;;;;3.03;1.10;;;;;;;16.10;50.68;101159.03;6276997;28;20045;-81
2023/05/01 11:23:05;;;;;;;4.05;1.92;;;;;;;16.14;50.92;101160.53;6277142;28;20045;-81
2023/05/01 11:26:07;;;;;;;4.10;0.80;;;;;;;16.23;50.57;101154.56;6277161;28;20055;-81
2023/05/01 11:29:10;;;;;;;2.22;0.60;;;;;;;16.17;50.27;101153.22;6277085;28;20049;-82
2023/05/01 11:32:18;;;;;;;1.00;0.55;;;;;;;16.40;44.29;101143.63;6277120;28;20128;-82
2023/05/01 11:35:20;;;;;;;0.57;0.40;;;;;;;16.53;44.28;101142.72;6276698;28;20045;-83
2023/05/01 11:38:22;;;;;;;1.48;0.57;;;;;;;16.53;43.71;101140.91;6276844;28;20433;-82
2023/05/01 11:41:24;;;;;;;1.55;0.60;;;;;;;16.63;43.38;101141.97;6276690;28;20445;-83
2023/05/01 11:44:25;;;;;;;0.50;0.50;;;;;;;16.78;42.85;101150.66;6276526;28;20072;-82
2023/05/01 11:47:31;;;;;;;0.98;0.40;;;;;;;16.92;40.85;101131.91;6276823;28;20055;-83
2023/05/01 11:50:34;;;;;;;0.68;0.50;;;;;;;17.13;41.73;101142.75;6276283;28;20048;-82
2023/05/01 11:53:36;;;;;;;0.35;0.20;;;;;;;17.31;40.79;101140.53;6276160;28;20048;-82
2023/05/01 11:56:39;;;;;;;0.63;0.28;;;;;;;17.75;40.39;101133.63;6276210;28;20049;-83
2023/05/01 11:59:46;;;;;;;0.70;0.50;;;;;;;17.87;41.58;101123.88;6276057;28;20055;-82
2023/05/01 12:03:08;;;;;;;0.63;0.30;;;;;;;18.06;38.74;101108.16;6276241;28;20053;-82
2023/05/01 12:06:11;;;;;;;1.92;0.68;;;;;;;18.43;35.70;101115.88;6276078;28;20051;-82
2023/05/01 12:09:17;;;;;;;1.00;0.38;;;;;;;18.50;38.11;101107.28;6275754;28;20433;-82
2023/05/01 12:12:19;;;;;;;0.60;0.40;;;;;;;18.63;39.35;101109.78;6276029;28;20053;-85
2023/05/01 12:15:20;;;;;;;0.50;0.40;;;;;;;18.86;38.32;101104.44;6276121;28;20052;-83
2023/05/01 12:18:23;;;;;;;0.47;0.47;;;;;;;19.14;39.41;101100.31;6275826;28;20048;-83
2023/05/01 12:21:25;;;;;;;1.33;0.57;;;;;;;19.27;38.73;101103.63;6275356;28;20044;-81
2023/05/01 12:24:27;;;;;;;0.90;0.50;;;;;;;19.06;38.89;101097.44;6275878;28;20076;-83
2023/05/01 12:27:28;;;;;;;1.10;0.70;;;;;;;19.01;39.88;101109.31;6275544;28;20045;-83
2023/05/01 12:30:30;;;;;;;2.33;0.82;;;;;;;18.97;41.70;101097.22;6275765;28;20044;-81
2023/05/01 12:33:32;;;;;;;3.08;0.98;;;;;;;19.09;38.74;101098.03;6275671;28;20349;-82
2023/05/01 12:36:35;;;;;;;0.93;0.60;;;;;;;18.96;40.09;101098.19;6275586;28;20040;-81
2023/05/01 12:39:38;;;;;;;0.65;0.65;;;;;;;18.95;41.17;101091.19;6275675;28;20056;-80
2023/05/01 12:42:40;;;;;;;1.15;0.50;;;;;;;19.04;40.40;101094.06;6275677;28;20131;-81
2023/05/01 12:45:42;;;;;;;0.85;0.70;;;;;;;19.22;40.67;101088.03;6275567;28;20052;-80
2023/05/01 12:48:45;;;;;;;0.43;0.40;;;;;;;19.31;42.68;101083.75;6275164;28;20441;-81
2023/05/01 12:51:47;;;;;;;0.80;0.63;;;;;;;19.58;39.62;101090.38;6259204;28;20349;-80
2023/05/01 12:54:49;;;;;;;0.80;0.40;;;;;;;19.59;38.81;101078.72;6273891;28;20123;-80
2023/05/01 12:57:51;;;;;;;1.05;0.63;;;;;;;19.75;36.60;101069.28;6275342;28;20045;-82
2023/05/01 13:00:55;;;;;;;0.73;0.40;;;;;;;19.93;38.49;101068.66;6275258;28;20365;-81
2023/05/01 13:03:57;;;;;;;0.55;0.47;;;;;;;20.10;37.59;101065.34;6275004;28;20052;-81
2023/05/01 13:06:59;;;;;;;0.40;0.40;;;;;;;19.76;38.04;101056.81;6275008;28;20056;-80
2023/05/01 13:10:01;;;;;;;0.75;0.40;;;;;;;19.36;38.73;101057.56;6275165;28;20452;-83
2023/05/01 13:13:03;;;;;;;0.30;0.30;;;;;;;19.34;38.21;101051.50;6275158;28;20083;-82
2023/05/01 13:16:07;;;;;;;0.47;0.43;;;;;;;19.29;40.26;101055.53;6275197;28;20330;-82
2023/05/01 13:19:10;;;;;;;0.47;0.47;;;;;;;19.29;40.83;101056.38;6275295;28;20418;-81
2023/05/01 13:22:12;;;;;;;1.27;0.55;;;;;;;18.96;41.31;101052.09;6275188;28;20346;-83
2023/05/01 13:25:19;;;;;;;0.50;0.50;;;;;;;18.58;42.48;101053.41;6277847;28;20350;-82
2023/05/01 13:28:20;;;;;;;0.60;0.50;;;;;;;18.43;42.89;101055.50;6279807;28;20452;-82
2023/05/01 13:31:22;;;;;;;0.55;0.47;;;;;;;18.55;43.79;101053.66;6279863;28;20369;-82
2023/05/01 13:34:31;;;;;;;1.60;0.70;;;;;;;19.08;44.71;101047.56;6278428;28;20456;-82
2023/05/01 13:37:34;;;;;;;2.40;0.70;;;;;;;19.93;45.84;101048.16;6274957;28;20045;-82
2023/05/01 13:40:36;;;;;;;2.15;0.90;;;;;;;19.91;43.65;101052.81;6278248;28;20041;-83
2023/05/01 13:43:39;;;;;;;0.98;0.70;;;;;;;19.67;42.04;101038.94;6279614;28;20051;-80
2023/05/01 13:46:42;;;;;;;1.80;0.73;;;;;;;19.21;43.15;101038.38;6279301;28;20135;-82
2023/05/01 13:49:47;;;;;;;0.98;0.73;;;;;;;19.15;43.09;101030.91;6279425;28;20501;-81
2023/05/01 13:52:48;;;;;;;0.85;0.60;;;;;;;18.87;44.55;101037.72;6272028;28;20053;-83
2023/05/01 13:55:49;;;;;;;1.50;0.77;;;;;;;18.92;47.21;101032.84;6278942;28;20049;-82
2023/05/01 13:58:51;;;;;;;0.70;0.60;;;;;;;19.17;44.58;101039.63;6279097;28;20045;-83
2023/05/01 14:01:52;;;;;;;2.35;0.60;;;;;;;19.07;45.17;101040.50;6279346;28;20041;-84
2023/05/01 14:04:55;;;;;;;0.98;0.55;;;;;;;19.11;44.23;101039.28;6279041;28;20126;-82
2023/05/01 14:07:58;;;;;;;1.10;0.70;;;;;;;19.00;45.22;101033.03;6278812;28;20044;-83
2023/05/01 14:10:59;;;;;;;3.03;0.70;;;;;;;18.88;46.07;101036.72;6279612;28;20041;-82
2023/05/01 14:14:00;;;;;;;1.45;0.80;;;;;;;18.88;45.77;101030.56;6278784;28;20053;-82
2023/05/01 14:17:02;;;;;;;1.08;0.70;;;;;;;18.86;45.12;101033.38;6279174;28;20060;-83
2023/05/01 14:20:06;;;;;;;0.50;0.50;;;;;;;18.81;45.64;101030.25;6278904;28;20053;-81